Friday Harbor, Washington
Current Conditions -  °F | °C
As of 1:53 AM on Monday 26 Jan 2015 (Local Time) from KFHR Reporting Station
Clear Clear  
Wind Chill: 48°   Ceiling: Unl
Heat Index: 48°   Visibility: 10mi
Dew Point: 47°   Wind: 3mph
Humidity: 96%   Direction: 330°NNW
Pressure: 29.96"   Gusts: NA
Location:  48.53°N, 123.02°W
Report Text: KFHR 260953Z AUTO 33003KT 10SM CLR 09/08 A2996 RMK AO2 SLP144 T00890083
Loading
Personal Weather Stations






























Interactive Weather Map New forecast layout! Learn more

10-Day Weather Forecast

Advertisements
Track Severe Weather on mobile